Time;durP1;ratioP1;P1;durP2;ratioP2;P2;SDS_P1;SDS_P2;PMS_P1;PMS_P2;Temp;Humidity;BMP_temperature;BMP_pressure;BME280_temperature;BME280_humidity;BME280_pressure;Samples;Min_cycle;Max_cycle;Signal;HPM_P1;HPM_P2
2023/04/18 00:02:15;;;;;;;89.22;31.50;;;;;;;7.82;100.00;102721.94;5064323;28;20123;-43
2023/04/18 00:04:41;;;;;;;80.18;30.60;;;;;;;7.79;100.00;102722.19;5056278;28;20175;-44
2023/04/18 00:07:07;;;;;;;75.40;29.48;;;;;;;7.79;100.00;102723.03;5072211;28;20111;-45
2023/04/18 00:09:32;;;;;;;94.40;31.80;;;;;;;7.76;100.00;102723.28;5071096;28;20529;-43
2023/04/18 00:11:57;;;;;;;79.80;31.65;;;;;;;7.80;100.00;102730.13;5069249;28;20036;-44
2023/04/18 00:14:23;;;;;;;83.45;31.05;;;;;;;7.76;100.00;102728.63;5070790;28;20051;-44
2023/04/18 00:16:49;;;;;;;85.32;32.03;;;;;;;7.74;100.00;102724.34;5069447;28;20428;-45
2023/04/18 00:19:14;;;;;;;90.30;32.08;;;;;;;7.75;100.00;102726.09;5070921;28;20028;-45
2023/04/18 00:21:43;;;;;;;88.30;32.42;;;;;;;7.80;100.00;102726.59;5068866;28;20021;-44
2023/04/18 00:24:09;;;;;;;72.45;31.20;;;;;;;7.75;100.00;102726.09;5070662;28;20119;-43
2023/04/18 00:26:34;;;;;;;85.50;32.33;;;;;;;7.73;100.00;102722.66;5070284;28;20103;-44
2023/04/18 00:29:01;;;;;;;85.28;32.08;;;;;;;7.81;100.00;102725.59;5068809;28;20060;-46
2023/04/18 00:31:26;;;;;;;86.73;31.07;;;;;;;7.79;100.00;102728.41;5069419;28;20028;-44
2023/04/18 00:33:52;;;;;;;75.90;30.83;;;;;;;7.77;100.00;102727.69;5070493;28;20283;-44
2023/04/18 00:36:17;;;;;;;82.45;31.85;;;;;;;7.81;100.00;102720.25;5061673;28;20025;-43
2023/04/18 00:38:42;;;;;;;86.88;33.10;;;;;;;7.79;100.00;102722.19;5050683;28;20025;-44
2023/04/18 00:41:08;;;;;;;81.82;30.13;;;;;;;7.79;100.00;102712.31;5062677;28;20025;-47
2023/04/18 00:43:33;;;;;;;89.13;32.50;;;;;;;7.80;100.00;102719.41;5066824;28;20032;-46
2023/04/18 00:46:00;;;;;;;81.57;32.10;;;;;;;7.81;100.00;102714.88;5050383;28;20089;-47
2023/04/18 00:48:25;;;;;;;81.78;29.98;;;;;;;7.83;100.00;102712.94;5050471;28;20036;-44
2023/04/18 00:50:52;;;;;;;76.43;29.25;;;;;;;7.85;100.00;102711.88;5050307;28;20627;-42
2023/04/18 00:53:17;;;;;;;84.25;30.30;;;;;;;7.84;100.00;102709.28;5067855;28;20060;-44
2023/04/18 00:55:43;;;;;;;80.28;30.70;;;;;;;7.88;100.00;102700.91;5069664;28;20119;-44
2023/04/18 00:58:08;;;;;;;80.30;30.38;;;;;;;7.88;100.00;102708.94;5068663;28;20029;-46
2023/04/18 01:00:34;;;;;;;73.63;29.17;;;;;;;7.93;100.00;102697.88;5070029;28;20043;-46
2023/04/18 01:02:59;;;;;;;81.75;29.58;;;;;;;7.92;100.00;102701.50;5069279;28;20036;-44
2023/04/18 01:05:25;;;;;;;69.68;28.23;;;;;;;7.93;100.00;102692.50;5069466;28;20048;-44
2023/04/18 01:07:51;;;;;;;67.97;26.10;;;;;;;7.93;100.00;102691.66;5068753;28;20036;-44
2023/04/18 01:10:17;;;;;;;74.43;27.58;;;;;;;7.95;100.00;102690.53;5070008;28;20032;-47
2023/04/18 01:12:42;;;;;;;73.40;28.50;;;;;;;7.95;100.00;102690.53;5067091;28;20517;-46
2023/04/18 01:15:08;;;;;;;69.97;27.42;;;;;;;7.98;100.00;102686.75;5069830;28;20615;-43
2023/04/18 01:17:34;;;;;;;64.63;26.08;;;;;;;7.93;100.00;102689.81;5069463;28;20041;-44
2023/04/18 01:20:00;;;;;;;71.90;27.50;;;;;;;7.93;100.00;102687.13;5070081;28;20482;-45
2023/04/18 01:22:27;;;;;;;60.30;25.23;;;;;;;7.91;100.00;102678.34;5068386;28;20149;-46
2023/04/18 01:24:52;;;;;;;69.85;25.38;;;;;;;7.91;100.00;102675.69;5070239;28;20457;-45
2023/04/18 01:27:18;;;;;;;53.03;23.13;;;;;;;7.94;100.00;102667.38;5060536;28;20025;-44
2023/04/18 01:29:43;;;;;;;64.28;24.50;;;;;;;7.93;100.00;102670.22;5053899;28;20025;-45
2023/04/18 01:32:08;;;;;;;55.45;24.05;;;;;;;7.87;100.00;102669.72;5062852;28;20028;-45
2023/04/18 01:34:34;;;;;;;73.60;24.23;;;;;;;7.86;100.00;102661.78;5069235;28;20362;-46
2023/04/18 01:36:59;;;;;;;54.35;22.85;;;;;;;7.91;100.00;102663.13;5065091;28;20067;-46
2023/04/18 01:39:25;;;;;;;50.38;23.02;;;;;;;7.90;100.00;102661.44;5074050;28;20029;-45
2023/04/18 01:41:50;;;;;;;57.28;22.10;;;;;;;7.89;100.00;102657.00;5071993;28;20133;-44
2023/04/18 01:44:15;;;;;;;47.63;22.15;;;;;;;7.84;100.00;102656.53;5071095;28;20037;-45
2023/04/18 01:46:41;;;;;;;52.10;22.17;;;;;;;7.79;100.00;102661.38;5072550;28;20183;-44
2023/04/18 01:49:07;;;;;;;58.13;23.17;;;;;;;7.77;100.00;102662.50;5073916;28;20500;-44
2023/04/18 01:51:32;;;;;;;54.95;22.10;;;;;;;7.75;100.00;102661.75;5071448;28;20036;-45
2023/04/18 01:53:57;;;;;;;48.00;20.35;;;;;;;7.68;100.00;102659.53;5073424;28;20024;-46
2023/04/18 01:56:23;;;;;;;43.70;19.38;;;;;;;7.66;100.00;102663.31;5073508;28;20044;-46
2023/04/18 01:58:48;;;;;;;51.03;20.65;;;;;;;7.65;100.00;102662.47;5072016;28;20508;-45
2023/04/18 02:01:14;;;;;;;46.22;19.05;;;;;;;7.64;100.00;102652.72;5072457;28;20115;-44
2023/04/18 02:03:39;;;;;;;53.58;17.70;;;;;;;7.61;100.00;102655.66;5072578;28;20032;-47
2023/04/18 02:06:05;;;;;;;37.10;16.73;;;;;;;7.58;100.00;102652.31;5071675;28;20473;-44
2023/04/18 02:08:34;;;;;;;37.50;15.68;;;;;;;7.53;100.00;102643.78;5073238;28;20062;-45
2023/04/18 02:11:00;;;;;;;37.90;16.80;;;;;;;7.53;100.00;102643.78;5059918;28;20035;-43
2023/04/18 02:13:25;;;;;;;33.13;15.20;;;;;;;7.48;100.00;102642.34;5071481;28;20028;-45
2023/04/18 02:15:50;;;;;;;33.78;15.35;;;;;;;7.45;100.00;102634.53;5073264;28;20473;-44
2023/04/18 02:18:18;;;;;;;35.75;14.95;;;;;;;7.38;100.00;102638.66;5072879;28;20021;-44
2023/04/18 02:20:44;;;;;;;;;;;;;;;7.34;100.00;102631.78;5072639;28;20021;-45
2023/04/18 02:23:09;;;;;;;34.22;14.10;;;;;;;7.28;100.00;102631.44;5072221;28;20340;-43
2023/04/18 02:25:35;;;;;;;32.08;13.77;;;;;;;7.25;100.00;102633.38;5072891;28;20021;-45
2023/04/18 02:28:00;;;;;;;29.85;14.15;;;;;;;7.21;100.00;102626.56;5071171;28;20060;-47
2023/04/18 02:30:26;;;;;;;32.30;15.15;;;;;;;7.16;100.00;102631.41;5072849;28;20358;-44
2023/04/18 02:32:53;;;;;;;32.25;13.60;;;;;;;7.16;100.00;102628.72;5070684;28;20025;-44
2023/04/18 02:35:19;;;;;;;29.90;13.93;;;;;;;7.15;100.00;102631.50;5072537;28;20029;-44
2023/04/18 02:37:45;;;;;;;29.30;13.50;;;;;;;7.11;100.00;102624.66;5066463;28;20517;-44
2023/04/18 02:40:11;;;;;;;28.08;14.25;;;;;;;7.15;100.00;102628.81;5055213;28;20059;-45
2023/04/18 02:42:36;;;;;;;29.55;13.63;;;;;;;7.10;100.00;102617.59;5071372;28;20032;-44
2023/04/18 02:45:02;;;;;;;36.97;14.68;;;;;;;7.08;100.00;102628.41;5072370;28;20025;-43
2023/04/18 02:47:27;;;;;;;32.92;13.57;;;;;;;7.06;100.00;102626.81;5070396;28;20419;-45
2023/04/18 02:49:53;;;;;;;45.80;14.43;;;;;;;7.06;100.00;102633.06;5069661;28;20123;-43
2023/04/18 02:52:18;;;;;;;27.50;13.60;;;;;;;7.06;100.00;102632.16;5071079;28;20028;-46
2023/04/18 02:54:44;;;;;;;32.08;13.77;;;;;;;7.07;100.00;102637.44;5072425;28;20036;-45
2023/04/18 02:57:09;;;;;;;28.45;13.55;;;;;;;7.08;100.00;102630.25;5071447;28;20508;-44
2023/04/18 02:59:34;;;;;;;33.35;12.90;;;;;;;7.05;100.00;102636.69;5070989;28;20462;-44
2023/04/18 03:02:00;;;;;;;25.75;13.43;;;;;;;6.97;100.00;102637.25;5070342;28;20269;-45
2023/04/18 03:04:25;;;;;;;26.80;13.32;;;;;;;6.98;100.00;102632.78;5072068;28;20056;-45
2023/04/18 03:06:52;;;;;;;29.80;13.25;;;;;;;6.95;100.00;102635.66;5062231;28;20457;-46
2023/04/18 03:09:17;;;;;;;31.42;13.77;;;;;;;6.94;100.00;102633.97;5052001;28;20025;-45
2023/04/18 03:11:43;;;;;;;28.58;13.02;;;;;;;6.97;100.00;102633.72;5059738;28;20103;-47
2023/04/18 03:14:08;;;;;;;28.52;13.68;;;;;;;6.99;100.00;102634.47;5071762;28;20559;-45
2023/04/18 03:16:33;;;;;;;23.88;12.60;;;;;;;6.95;100.00;102641.00;5070242;28;20460;-45
2023/04/18 03:19:00;;;;;;;32.78;13.68;;;;;;;6.95;100.00;102635.66;5071649;28;20035;-44
2023/04/18 03:21:26;;;;;;;28.08;12.38;;;;;;;6.97;100.00;102639.94;5070130;28;20028;-43
2023/04/18 03:23:52;;;;;;;30.83;14.05;;;;;;;6.97;100.00;102639.06;5058836;28;20577;-43
2023/04/18 03:26:17;;;;;;;32.97;14.32;;;;;;;6.95;100.00;102641.00;5056125;28;20027;-45
2023/04/18 03:28:42;;;;;;;26.77;13.27;;;;;;;6.95;100.00;102641.00;5068381;28;20043;-46
2023/04/18 03:31:08;;;;;;;28.83;13.68;;;;;;;6.97;100.00;102645.28;5070723;28;20093;-46
2023/04/18 03:33:33;;;;;;;31.80;15.45;;;;;;;6.96;100.00;102643.59;5067262;28;20498;-44
2023/04/18 03:35:58;;;;;;;31.13;13.30;;;;;;;6.92;100.00;102647.44;5055819;28;20079;-44
2023/04/18 03:38:24;;;;;;;25.35;13.93;;;;;;;6.94;100.00;102644.66;5050448;28;20036;-45
2023/04/18 03:40:49;;;;;;;29.15;13.27;;;;;;;6.93;100.00;102645.66;5050452;28;20042;-45
2023/04/18 03:43:15;;;;;;;31.92;13.63;;;;;;;6.96;100.00;102642.72;5067698;28;20086;-46
2023/04/18 03:45:40;;;;;;;29.33;13.90;;;;;;;7.02;100.00;102643.13;5069130;28;20428;-44
2023/04/18 03:48:06;;;;;;;31.80;13.68;;;;;;;7.02;100.00;102644.94;5068491;28;20074;-45
2023/04/18 03:50:31;;;;;;;26.20;12.75;;;;;;;7.05;100.00;102634.00;5067140;28;20020;-45
2023/04/18 03:52:57;;;;;;;31.98;13.95;;;;;;;7.06;100.00;102633.06;5055159;28;20116;-46
2023/04/18 03:55:25;;;;;;;25.60;13.25;;;;;;;7.06;100.00;102634.84;5047633;28;20072;-45
2023/04/18 03:57:50;;;;;;;31.13;13.73;;;;;;;7.04;100.00;102646.53;5049125;28;20111;-44
2023/04/18 04:00:16;;;;;;;28.58;12.77;;;;;;;7.01;100.00;102635.22;5053459;28;20115;-45
2023/04/18 04:02:41;;;;;;;24.48;13.38;;;;;;;7.07;100.00;102634.75;5067115;28;20024;-45
2023/04/18 04:05:07;;;;;;;27.52;13.63;;;;;;;7.05;100.00;102634.00;5069290;28;20107;-44
2023/04/18 04:07:33;;;;;;;25.60;13.25;;;;;;;7.02;100.00;102636.91;5069282;28;20123;-44
2023/04/18 04:09:58;;;;;;;28.08;13.55;;;;;;;7.02;100.00;102637.75;5068925;28;20459;-44
2023/04/18 04:12:24;;;;;;;27.15;12.95;;;;;;;6.99;100.00;102638.00;5065137;28;20522;-47
2023/04/18 04:14:49;;;;;;;29.00;13.02;;;;;;;6.98;100.00;102638.97;5062921;28;20032;-45
2023/04/18 04:17:15;;;;;;;26.20;13.63;;;;;;;7.00;100.00;102644.19;5060644;28;20032;-45
2023/04/18 04:19:40;;;;;;;30.30;13.23;;;;;;;6.99;100.00;102642.50;5067523;28;20051;-44
2023/04/18 04:22:05;;;;;;;25.88;13.27;;;;;;;7.00;100.00;102646.88;5067997;28;20123;-44
2023/04/18 04:24:32;;;;;;;36.30;13.88;;;;;;;6.99;100.00;102653.22;5071261;28;20363;-44
2023/04/18 04:26:58;;;;;;;27.33;13.25;;;;;;;6.98;100.00;102646.16;5071222;28;20761;-45
2023/04/18 04:29:25;;;;;;;27.50;13.55;;;;;;;7.00;100.00;102644.19;5067772;28;21169;-45
2023/04/18 04:31:50;;;;;;;31.23;13.77;;;;;;;7.00;100.00;102650.44;5051232;28;20438;-45
2023/04/18 04:34:15;;;;;;;35.92;13.90;;;;;;;7.03;100.00;102644.84;5050143;28;20033;-46
2023/04/18 04:36:42;;;;;;;32.38;13.93;;;;;;;7.08;100.00;102652.50;5050450;28;20089;-43
2023/04/18 04:39:08;;;;;;;29.70;13.52;;;;;;;7.07;100.00;102645.47;5070429;28;20397;-46
2023/04/18 04:41:36;;;;;;;27.95;13.85;;;;;;;7.12;100.00;102650.47;5069427;28;20063;-44
2023/04/18 04:44:03;;;;;;;26.73;13.32;;;;;;;7.07;100.00;102645.47;5070471;28;20060;-44
2023/04/18 04:46:29;;;;;;;28.98;13.77;;;;;;;7.10;100.00;102645.22;5070234;28;20343;-44
2023/04/18 04:48:55;;;;;;;26.25;12.98;;;;;;;7.10;100.00;102645.22;5070619;28;20132;-43
2023/04/18 04:51:20;;;;;;;27.52;13.65;;;;;;;7.13;100.00;102653.03;5067217;28;20481;-45
2023/04/18 04:53:45;;;;;;;27.33;13.20;;;;;;;7.12;100.00;102654.00;5067428;28;20028;-44
2023/04/18 04:56:11;;;;;;;26.38;13.20;;;;;;;7.13;100.00;102661.06;5066277;28;20521;-44
2023/04/18 04:58:36;;;;;;;24.25;12.77;;;;;;;7.20;100.00;102656.09;5067699;28;20059;-43
2023/04/18 05:01:02;;;;;;;27.25;12.68;;;;;;;7.19;100.00;102655.25;5065073;28;20031;-45
2023/04/18 05:03:27;;;;;;;34.90;13.52;;;;;;;7.22;100.00;102660.38;5059994;28;20445;-46
2023/04/18 05:05:52;;;;;;;33.20;14.30;;;;;;;7.20;100.00;102662.31;5056124;28;20356;-46
2023/04/18 05:08:18;;;;;;;31.80;14.20;;;;;;;7.14;100.00;102661.94;5063308;28;20434;-44
2023/04/18 05:10:44;;;;;;;27.42;13.93;;;;;;;7.07;100.00;102653.50;5068557;28;20036;-45
2023/04/18 05:13:10;;;;;;;28.17;14.77;;;;;;;7.00;100.00;102662.94;5070229;28;20116;-45
2023/04/18 05:15:35;;;;;;;26.25;14.00;;;;;;;6.95;100.00;102667.78;5070001;28;20132;-44
2023/04/18 05:18:01;;;;;;;32.50;14.32;;;;;;;6.94;100.00;102666.94;5069472;28;20032;-44
2023/04/18 05:20:26;;;;;;;28.08;14.75;;;;;;;6.93;100.00;102667.91;5068408;28;20025;-44
2023/04/18 05:22:51;;;;;;;29.52;13.15;;;;;;;6.90;100.00;102670.81;5060296;28;20029;-45
2023/04/18 05:25:17;;;;;;;30.27;14.38;;;;;;;6.90;100.00;102667.25;5057701;28;20037;-45
2023/04/18 05:27:45;;;;;;;30.90;14.93;;;;;;;6.92;100.00;102676.03;5068773;28;20432;-43
2023/04/18 05:30:11;;;;;;;25.35;13.73;;;;;;;6.99;100.00;102670.13;5064824;28;20324;-44
2023/04/18 05:32:37;;;;;;;28.45;14.23;;;;;;;6.98;100.00;102675.59;5066463;28;20060;-44
2023/04/18 05:35:07;;;;;;;26.23;13.93;;;;;;;7.03;100.00;102681.47;5068692;28;20029;-46
2023/04/18 05:37:32;;;;;;;31.63;13.90;;;;;;;7.04;100.00;102677.81;5070267;28;20128;-46
2023/04/18 05:39:58;;;;;;;34.38;13.88;;;;;;;7.03;100.00;102679.66;5070038;28;20056;-45
2023/04/18 05:42:23;;;;;;;34.22;15.05;;;;;;;7.06;100.00;102681.25;5069586;28;20338;-45
2023/04/18 05:44:48;;;;;;;30.58;14.75;;;;;;;7.07;100.00;102688.28;5071427;28;20111;-44
2023/04/18 05:47:14;;;;;;;29.90;14.45;;;;;;;7.08;100.00;102684.63;5068856;28;20020;-45
2023/04/18 05:49:39;;;;;;;25.92;13.90;;;;;;;7.11;100.00;102686.22;5070269;28;20116;-44
2023/04/18 05:52:05;;;;;;;31.33;15.57;;;;;;;7.16;100.00;102690.31;5070749;28;20029;-44
2023/04/18 05:54:30;;;;;;;26.73;13.73;;;;;;;7.22;100.00;102695.19;5071187;28;20024;-44
2023/04/18 05:56:56;;;;;;;29.33;14.60;;;;;;;7.29;100.00;102690.22;5065697;28;20125;-43
2023/04/18 05:59:22;;;;;;;27.38;15.10;;;;;;;7.26;100.00;102693.97;5068078;28;20016;-45
2023/04/18 06:01:48;;;;;;;24.92;14.68;;;;;;;7.29;100.00;102692.03;5070183;28;20456;-44
2023/04/18 06:04:14;;;;;;;35.92;14.10;;;;;;;7.32;100.00;102681.97;5070228;28;20029;-44
2023/04/18 06:06:39;;;;;;;30.40;14.45;;;;;;;7.33;100.00;102694.38;5069160;28;20111;-45
2023/04/18 06:09:05;;;;;;;26.83;14.68;;;;;;;7.25;100.00;102696.78;5066468;28;20124;-47
2023/04/18 06:11:32;;;;;;;30.25;15.55;;;;;;;7.27;100.00;102700.22;5071191;28;20056;-44
2023/04/18 06:13:58;;;;;;;31.42;14.98;;;;;;;7.29;100.00;102697.41;5072716;28;20349;-44
2023/04/18 06:16:23;;;;;;;30.42;15.02;;;;;;;7.32;100.00;102702.53;5071542;28;20036;-45
2023/04/18 06:18:49;;;;;;;27.20;14.57;;;;;;;7.34;100.00;102696.09;5069446;28;20051;-44
2023/04/18 06:21:14;;;;;;;28.80;14.38;;;;;;;7.40;100.00;102697.47;5071649;28;20115;-47
2023/04/18 06:23:39;;;;;;;30.50;14.48;;;;;;;7.42;100.00;102703.53;5071920;28;20389;-45
2023/04/18 06:26:06;;;;;;;28.20;14.48;;;;;;;7.40;100.00;102709.03;5074696;28;20443;-45
2023/04/18 06:28:31;;;;;;;28.85;14.85;;;;;;;7.36;100.00;102709.38;5074424;28;20101;-46
2023/04/18 06:30:56;;;;;;;34.63;14.75;;;;;;;7.31;100.00;102711.53;5074482;28;20078;-45
2023/04/18 06:33:22;;;;;;;28.73;14.40;;;;;;;7.25;100.00;102712.84;5073855;28;20025;-43
2023/04/18 06:35:47;;;;;;;35.60;15.27;;;;;;;7.21;100.00;102706.88;5074203;28;20394;-47
2023/04/18 06:38:13;;;;;;;29.63;14.85;;;;;;;7.17;100.00;102709.91;5074389;28;20052;-45
2023/04/18 06:40:38;;;;;;;27.60;14.77;;;;;;;7.15;100.00;102718.03;5073568;28;20099;-44
2023/04/18 06:43:03;;;;;;;33.95;14.90;;;;;;;7.13;100.00;102714.59;5073043;28;20071;-46
2023/04/18 06:45:30;;;;;;;37.17;14.73;;;;;;;7.12;100.00;102723.63;5073042;28;20028;-47
2023/04/18 06:47:55;;;;;;;30.38;14.38;;;;;;;7.12;100.00;102720.94;5073461;28;20031;-44
2023/04/18 06:50:21;;;;;;;30.55;13.90;;;;;;;7.07;100.00;102717.75;5072317;28;20115;-43
2023/04/18 06:52:46;;;;;;;30.77;15.77;;;;;;;7.13;100.00;102725.31;5073344;28;20079;-44
2023/04/18 06:55:12;;;;;;;25.80;13.90;;;;;;;7.17;100.00;102720.59;5073612;28;20116;-46
2023/04/18 06:57:39;;;;;;;29.02;14.82;;;;;;;7.26;100.00;102720.75;5074421;28;20098;-43
2023/04/18 07:00:05;;;;;;;35.35;14.85;;;;;;;7.30;100.00;102712.53;5073170;28;20362;-45
2023/04/18 07:02:31;;;;;;;28.63;14.50;;;;;;;7.35;100.00;102716.56;5073572;28;20120;-45
2023/04/18 07:04:56;;;;;;;35.22;14.70;;;;;;;7.46;100.00;102713.06;5073322;28;20457;-47
2023/04/18 07:07:21;;;;;;;37.90;15.10;;;;;;;7.53;100.00;102722.38;5073524;28;20028;-45
2023/04/18 07:09:48;;;;;;;31.33;15.55;;;;;;;7.66;100.00;102723.16;5073462;28;20028;-44
2023/04/18 07:12:13;;;;;;;32.80;14.70;;;;;;;7.90;100.00;102720.41;5072700;28;20025;-44
2023/04/18 07:14:39;;;;;;;35.47;14.55;;;;;;;8.04;100.00;102719.31;5071893;28;20438;-43
2023/04/18 07:17:04;;;;;;;35.90;15.15;;;;;;;8.10;100.00;102732.25;5072667;28;20153;-45
2023/04/18 07:19:29;;;;;;;25.13;14.02;;;;;;;8.07;100.00;102719.09;5072809;28;20025;-45
2023/04/18 07:21:55;;;;;;;29.20;13.90;;;;;;;8.06;100.00;102724.59;5072584;28;20407;-43
2023/04/18 07:24:22;;;;;;;30.60;14.32;;;;;;;8.05;100.00;102723.69;5071114;28;20469;-45
2023/04/18 07:26:48;;;;;;;31.67;14.85;;;;;;;7.97;100.00;102725.28;5072450;28;20142;-45
2023/04/18 07:29:13;;;;;;;30.48;14.60;;;;;;;7.86;100.00;102728.78;5071965;28;20506;-45
2023/04/18 07:31:39;;;;;;;28.33;14.95;;;;;;;7.76;100.00;102722.44;5072033;28;20017;-45
2023/04/18 07:34:04;;;;;;;30.45;15.18;;;;;;;7.72;100.00;102731.69;5071560;28;20052;-45
2023/04/18 07:36:30;;;;;;;30.30;15.07;;;;;;;7.62;100.00;102739.56;5072449;28;20366;-43
2023/04/18 07:38:55;;;;;;;31.98;15.55;;;;;;;7.54;100.00;102728.56;5072006;28;20028;-43
2023/04/18 07:41:21;;;;;;;34.88;14.98;;;;;;;7.56;100.00;102738.19;5071737;28;20055;-44
2023/04/18 07:43:46;;;;;;;32.67;15.30;;;;;;;7.67;100.00;102748.97;5071607;28;20040;-44
2023/04/18 07:46:11;;;;;;;29.00;15.27;;;;;;;7.72;100.00;102739.72;5071320;28;20426;-45
2023/04/18 07:48:37;;;;;;;30.40;14.98;;;;;;;7.73;100.00;102736.06;5071786;28;20079;-43
2023/04/18 07:51:02;;;;;;;29.40;14.90;;;;;;;7.71;100.00;102736.16;5071427;28;20036;-47
2023/04/18 07:53:28;;;;;;;31.90;15.35;;;;;;;7.79;100.00;102722.19;5071366;28;20429;-45
2023/04/18 07:55:54;;;;;;;30.35;15.85;;;;;;;7.96;100.00;102735.16;5071436;28;20040;-47
2023/04/18 07:58:19;;;;;;;35.22;15.77;;;;;;;8.30;100.00;102727.16;5071232;28;20025;-43
2023/04/18 08:00:45;;;;;;;31.27;15.07;;;;;;;9.01;100.00;102738.50;5071445;28;20036;-44
2023/04/18 08:03:11;;;;;;;30.70;13.73;;;;;;;9.92;100.00;102717.47;5071510;28;20032;-46
2023/04/18 08:05:41;;;;;;;28.42;13.88;;;;;;;10.63;100.00;102713.03;5071902;28;20136;-44
2023/04/18 08:08:07;;;;;;;31.25;14.50;;;;;;;10.93;100.00;102708.63;5071247;28;20434;-45
2023/04/18 08:10:33;;;;;;;29.08;13.98;;;;;;;10.80;100.00;102718.78;5071206;28;20017;-44
2023/04/18 08:12:59;;;;;;;27.15;13.18;;;;;;;10.35;100.00;102719.16;5071827;28;20046;-45
2023/04/18 08:15:26;;;;;;;26.10;13.55;;;;;;;9.81;100.00;102721.09;5071821;28;20485;-43
2023/04/18 08:17:52;;;;;;;28.50;13.75;;;;;;;9.54;100.00;102726.97;5071058;28;20032;-47
2023/04/18 08:20:18;;;;;;;30.60;13.48;;;;;;;9.38;100.00;102720.19;5070701;28;20094;-46
2023/04/18 08:22:43;;;;;;;32.53;14.13;;;;;;;9.30;100.00;102711.09;5070540;28;20024;-45
2023/04/18 08:25:09;;;;;;;23.17;12.77;;;;;;;9.25;100.00;102718.66;5070544;28;20023;-48
2023/04/18 08:27:34;;;;;;;27.52;13.20;;;;;;;9.24;100.00;102720.47;5071310;28;20024;-44
2023/04/18 08:30:02;;;;;;;30.10;13.45;;;;;;;9.29;100.00;102720.94;5070716;28;20044;-46
2023/04/18 08:32:28;;;;;;;22.65;12.10;;;;;;;9.37;100.00;102710.44;5071154;28;20078;-46
2023/04/18 08:34:53;;;;;;;30.13;13.98;;;;;;;9.27;100.00;102719.38;5070650;28;20024;-45
2023/04/18 08:37:18;;;;;;;28.83;12.60;;;;;;;9.30;100.00;102711.94;5065204;28;20485;-46
2023/04/18 08:39:44;;;;;;;27.60;12.32;;;;;;;9.35;100.00;102714.25;5050927;28;20417;-44
2023/04/18 08:42:09;;;;;;;26.45;12.30;;;;;;;9.34;100.00;102713.34;5049245;28;20116;-47
2023/04/18 08:44:36;;;;;;;25.20;12.20;;;;;;;9.37;100.00;102713.13;5050468;28;20021;-45
2023/04/18 08:47:02;;;;;;;22.95;11.35;;;;;;;9.35;100.00;102725.84;5050660;28;20195;-44
2023/04/18 08:49:27;;;;;;;22.33;12.10;;;;;;;9.28;100.00;102719.25;5050350;28;20048;-48
2023/04/18 08:51:53;;;;;;;25.35;12.45;;;;;;;9.34;100.00;102718.72;5050792;28;20405;-47
2023/04/18 08:54:19;;;;;;;21.48;11.13;;;;;;;9.45;100.00;102701.72;5050136;28;20029;-43
2023/04/18 08:56:44;;;;;;;24.33;10.90;;;;;;;9.60;100.00;102704.94;5050295;28;20461;-43
2023/04/18 08:59:10;;;;;;;26.23;11.88;;;;;;;9.94;100.00;102700.22;5050322;28;20185;-45
2023/04/18 09:01:51;;;;;;;21.42;10.70;;;;;;;10.31;100.00;102711.38;5050342;28;20120;-43
2023/04/18 09:04:37;;;;;;;21.25;11.30;;;;;;;10.51;100.00;102692.63;5050444;28;20404;-45
2023/04/18 09:07:07;;;;;;;23.52;11.75;;;;;;;10.55;100.00;102704.81;5050390;28;20509;-43
2023/04/18 09:09:46;;;;;;;20.08;10.32;;;;;;;10.35;100.00;102706.59;5050842;28;20103;-44
2023/04/18 09:12:14;;;;;;;26.67;11.73;;;;;;;10.26;100.00;102700.13;5050710;28;20024;-44
2023/04/18 09:14:48;;;;;;;19.73;11.10;;;;;;;10.28;100.00;102702.72;5050218;28;20028;-44
2023/04/18 09:17:17;;;;;;;21.33;11.57;;;;;;;10.62;100.00;102708.66;5050270;28;20079;-44
2023/04/18 09:19:50;;;;;;;23.30;11.63;;;;;;;10.81;100.00;102710.56;5065687;28;20021;-46
2023/04/18 09:22:16;;;;;;;20.63;11.50;;;;;;;11.10;100.00;102705.22;5048559;28;20302;-44
2023/04/18 09:24:52;;;;;;;27.70;11.93;;;;;;;11.04;100.00;102710.34;5049873;28;20028;-44
2023/04/18 09:27:21;;;;;;;27.85;11.60;;;;;;;11.13;100.00;102704.09;5050004;28;20484;-46
2023/04/18 09:29:48;;;;;;;22.20;12.23;;;;;;;11.32;100.00;102704.13;5049850;28;20024;-45
2023/04/18 09:32:23;;;;;;;24.17;12.05;;;;;;;11.19;100.00;102704.41;5049569;28;20473;-44
2023/04/18 09:34:56;;;;;;;21.13;12.07;;;;;;;11.14;100.00;102703.97;5050244;28;20112;-44
2023/04/18 09:37:23;;;;;;;23.35;11.65;;;;;;;11.57;100.00;102699.16;5048876;28;20394;-44
2023/04/18 09:39:49;;;;;;;21.02;11.95;;;;;;;12.71;100.00;102698.09;5049802;28;20401;-45
2023/04/18 09:42:15;;;;;;;20.27;11.13;;;;;;;14.25;98.67;102698.81;5049905;28;20021;-44
2023/04/18 09:45:06;;;;;;;22.98;12.20;;;;;;;15.58;88.10;102687.16;5048530;28;20507;-44
2023/04/18 09:47:36;;;;;;;20.48;12.25;;;;;;;16.60;80.39;102694.78;5052935;28;20134;-46
2023/04/18 09:50:06;;;;;;;22.25;11.65;;;;;;;16.58;77.53;102699.53;5053903;28;20036;-44
2023/04/18 09:52:34;;;;;;;22.23;11.68;;;;;;;15.02;78.78;102698.81;5053772;28;20035;-43
2023/04/18 09:55:02;;;;;;;26.35;12.27;;;;;;;13.84;85.69;102702.09;5053618;28;20025;-43
2023/04/18 09:57:30;;;;;;;21.45;11.60;;;;;;;12.95;89.90;102686.75;5053687;28;20037;-43
2023/04/18 10:00:28;;;;;;;26.40;11.93;;;;;;;12.10;96.57;102692.41;5052892;28;20104;-45
2023/04/18 10:03:08;;;;;;;17.23;11.07;;;;;;;11.71;100.00;102687.06;5018895;28;20063;-44
2023/04/18 10:05:35;;;;;;;24.05;12.88;;;;;;;11.69;100.00;102689.03;5053392;28;20551;-45
2023/04/18 10:08:01;;;;;;;18.30;10.50;;;;;;;11.69;100.00;102684.53;5053337;28;20124;-45
2023/04/18 10:10:27;;;;;;;20.00;10.82;;;;;;;11.60;100.00;102694.31;5051846;28;20078;-46
2023/04/18 10:12:54;;;;;;;22.55;9.82;;;;;;;11.42;100.00;102690.63;5053256;28;20475;-45
2023/04/18 10:15:21;;;;;;;21.37;10.37;;;;;;;11.42;100.00;102671.75;5053024;28;20036;-44
2023/04/18 10:17:55;;;;;;;21.50;12.25;;;;;;;11.60;100.00;102671.88;5067959;28;20024;-44
2023/04/18 10:20:25;;;;;;;23.88;11.88;;;;;;;11.46;100.00;102675.88;5052683;28;20438;-44
2023/04/18 10:22:51;;;;;;;25.55;11.45;;;;;;;11.48;100.00;102676.59;5052942;28;20028;-44
2023/04/18 10:25:38;;;;;;;23.17;11.48;;;;;;;11.54;100.00;102681.41;5053068;28;20416;-44
2023/04/18 10:28:05;;;;;;;20.17;11.23;;;;;;;11.59;100.00;102672.91;5052665;28;20433;-44
2023/04/18 10:30:40;;;;;;;22.67;11.38;;;;;;;12.27;100.00;102678.16;5052800;28;20463;-47
2023/04/18 10:33:34;;;;;;;19.48;9.93;;;;;;;12.72;97.90;102680.91;5052655;28;20101;-45
2023/04/18 10:36:08;;;;;;;22.85;10.60;;;;;;;13.01;99.58;102665.53;5053273;28;20029;-44
2023/04/18 10:38:37;;;;;;;20.17;9.80;;;;;;;14.23;93.52;102668.34;5052916;28;20033;-43
2023/04/18 10:41:28;;;;;;;20.73;9.73;;;;;;;14.91;86.33;102676.41;5052544;28;20036;-43
2023/04/18 10:44:05;;;;;;;16.10;9.52;;;;;;;14.71;86.62;102665.00;5052991;28;20029;-45
2023/04/18 10:46:42;;;;;;;14.93;8.90;;;;;;;14.57;86.06;102664.78;5052441;28;20054;-46
2023/04/18 10:49:19;;;;;;;16.33;9.02;;;;;;;13.69;87.85;102673.94;5052371;28;20028;-44
2023/04/18 10:51:46;;;;;;;16.17;9.30;;;;;;;13.15;90.82;102662.28;5052396;28;20033;-45
2023/04/18 10:54:19;;;;;;;17.25;8.93;;;;;;;12.62;93.79;102663.06;5050854;28;20021;-43
2023/04/18 10:56:55;;;;;;;15.38;8.68;;;;;;;12.11;95.31;102661.72;5051835;28;20045;-43
2023/04/18 10:59:22;;;;;;;17.25;8.98;;;;;;;11.78;98.38;102661.22;5052413;28;20029;-44
2023/04/18 11:01:49;;;;;;;16.80;9.75;;;;;;;11.63;100.00;102658.97;5052325;28;20025;-44
2023/04/18 11:04:15;;;;;;;19.10;9.73;;;;;;;11.59;100.00;102652.16;5050616;28;20103;-48
2023/04/18 11:06:53;;;;;;;17.05;10.02;;;;;;;11.42;100.00;102639.41;5052162;28;20025;-43
2023/04/18 11:09:19;;;;;;;26.13;10.80;;;;;;;11.32;100.00;102657.44;5052172;28;20115;-44